createdAt,value
2023-05-18T00:00:29.000Z,8.074218749999995
2023-05-18T00:01:30.000Z,7.4296875000000036
2023-05-18T00:02:30.000Z,8.074218749999995
2023-05-18T00:03:30.000Z,9.36328125
2023-05-18T00:04:30.000Z,8.074218749999995
2023-05-18T00:05:30.000Z,8.396484375000002
2023-05-18T00:06:31.000Z,8.074218749999995
2023-05-18T00:07:31.000Z,8.074218749999995
2023-05-18T00:08:31.000Z,8.396484375000002
2023-05-18T00:09:31.000Z,8.074218749999995
2023-05-18T00:10:31.000Z,8.074218749999995
2023-05-18T00:11:32.000Z,7.4296875000000036
2023-05-18T00:12:32.000Z,7.751953125
2023-05-18T00:13:32.000Z,8.396484375000002
2023-05-18T00:14:32.000Z,9.36328125
2023-05-18T00:15:32.000Z,9.041015625000004
2023-05-18T00:16:33.000Z,7.4296875000000036
2023-05-18T00:17:33.000Z,8.074218749999995
2023-05-18T00:18:33.000Z,9.36328125
2023-05-18T00:19:33.000Z,7.4296875000000036
2023-05-18T00:20:33.000Z,8.074218749999995
2023-05-18T00:21:34.000Z,7.4296875000000036
2023-05-18T00:22:34.000Z,9.041015625000004
2023-05-18T00:23:34.000Z,7.751953125
2023-05-18T00:24:34.000Z,9.041015625000004
2023-05-18T00:25:35.000Z,8.074218749999995
2023-05-18T00:26:35.000Z,8.396484375000002
2023-05-18T00:27:35.000Z,9.041015625000004
2023-05-18T00:28:35.000Z,8.396484375000002
2023-05-18T00:29:36.000Z,7.4296875000000036
2023-05-18T00:30:36.000Z,9.685546874999995
2023-05-18T00:31:36.000Z,8.074218749999995
2023-05-18T00:32:36.000Z,7.751953125
2023-05-18T00:33:36.000Z,8.074218749999995
2023-05-18T00:34:37.000Z,8.074218749999995
2023-05-18T00:35:37.000Z,7.751953125
2023-05-18T00:36:37.000Z,6.785156250000002
2023-05-18T00:37:37.000Z,8.074218749999995
2023-05-18T00:38:37.000Z,7.751953125
2023-05-18T00:39:37.000Z,6.785156250000002
2023-05-18T00:40:38.000Z,6.785156250000002
2023-05-18T00:41:38.000Z,7.751953125
2023-05-18T00:42:38.000Z,7.751953125
2023-05-18T00:43:38.000Z,7.751953125
2023-05-18T00:44:39.000Z,9.041015625000004
2023-05-18T00:45:39.000Z,8.718749999999996
2023-05-18T00:46:39.000Z,8.074218749999995
2023-05-18T00:47:39.000Z,8.074218749999995
2023-05-18T00:48:39.000Z,9.36328125
2023-05-18T00:49:40.000Z,7.4296875000000036
2023-05-18T00:50:40.000Z,9.041015625000004
2023-05-18T00:51:40.000Z,7.751953125
2023-05-18T00:52:41.000Z,8.074218749999995
2023-05-18T00:53:41.000Z,8.074218749999995
2023-05-18T00:54:41.000Z,8.074218749999995
2023-05-18T00:55:41.000Z,9.36328125
2023-05-18T00:56:41.000Z,8.074218749999995
2023-05-18T00:57:42.000Z,8.074218749999995
2023-05-18T00:58:42.000Z,8.396484375000002
2023-05-18T00:59:42.000Z,7.751953125
2023-05-18T01:00:42.000Z,8.074218749999995
2023-05-18T01:01:43.000Z,7.751953125
2023-05-18T01:02:43.000Z,8.396484375000002
2023-05-18T01:03:43.000Z,9.685546874999995
2023-05-18T01:04:43.000Z,7.751953125
2023-05-18T01:05:43.000Z,7.751953125
2023-05-18T01:06:44.000Z,8.396484375000002
2023-05-18T01:07:44.000Z,8.074218749999995
2023-05-18T01:08:44.000Z,8.074218749999995
2023-05-18T01:09:44.000Z,8.396484375000002
2023-05-18T01:10:45.000Z,8.718749999999996
2023-05-18T01:11:45.000Z,8.074218749999995
2023-05-18T01:12:45.000Z,6.785156250000002
2023-05-18T01:13:45.000Z,8.074218749999995
2023-05-18T01:14:45.000Z,8.074218749999995
2023-05-18T01:15:46.000Z,7.751953125
2023-05-18T01:16:46.000Z,8.074218749999995
2023-05-18T01:17:46.000Z,7.4296875000000036
2023-05-18T01:18:46.000Z,8.074218749999995
2023-05-18T01:19:47.000Z,8.074218749999995
2023-05-18T01:20:47.000Z,8.718749999999996
2023-05-18T01:21:47.000Z,8.396484375000002
2023-05-18T01:22:47.000Z,7.751953125
2023-05-18T01:23:47.000Z,8.074218749999995
2023-05-18T01:24:48.000Z,8.718749999999996
2023-05-18T01:25:48.000Z,8.074218749999995
2023-05-18T01:26:48.000Z,7.4296875000000036
2023-05-18T01:27:48.000Z,8.074218749999995
2023-05-18T01:28:49.000Z,7.4296875000000036
2023-05-18T01:29:49.000Z,9.685546874999995
2023-05-18T01:30:49.000Z,8.396484375000002
2023-05-18T01:31:49.000Z,9.041015625000004
2023-05-18T01:32:49.000Z,8.074218749999995
2023-05-18T01:33:50.000Z,8.074218749999995
2023-05-18T01:34:50.000Z,8.074218749999995
2023-05-18T01:35:50.000Z,6.785156250000002
2023-05-18T01:36:50.000Z,7.751953125
2023-05-18T01:37:50.000Z,8.718749999999996
2023-05-18T01:38:51.000Z,8.074218749999995
2023-05-18T01:39:51.000Z,8.074218749999995
2023-05-18T01:40:51.000Z,7.107421874999997
2023-05-18T01:41:51.000Z,7.107421874999997
2023-05-18T01:42:51.000Z,7.751953125
2023-05-18T01:43:52.000Z,8.074218749999995
2023-05-18T01:44:52.000Z,9.685546874999995
2023-05-18T01:45:52.000Z,7.4296875000000036
2023-05-18T01:46:52.000Z,8.396484375000002
2023-05-18T01:47:52.000Z,7.751953125
2023-05-18T01:48:53.000Z,8.074218749999995
2023-05-18T01:49:53.000Z,7.751953125
2023-05-18T01:50:53.000Z,8.396484375000002
2023-05-18T01:51:53.000Z,8.718749999999996
2023-05-18T01:52:54.000Z,7.4296875000000036
2023-05-18T01:53:54.000Z,6.785156250000002
2023-05-18T01:54:54.000Z,7.751953125
2023-05-18T01:55:54.000Z,7.107421874999997
2023-05-18T01:56:55.000Z,6.462890624999995
2023-05-18T01:57:55.000Z,6.462890624999995
2023-05-18T01:58:55.000Z,7.4296875000000036
2023-05-18T01:59:55.000Z,10.007812500000002
2023-05-18T02:00:55.000Z,8.718749999999996
2023-05-18T02:01:56.000Z,9.041015625000004
2023-05-18T02:02:56.000Z,8.396484375000002
2023-05-18T02:03:56.000Z,7.4296875000000036
2023-05-18T02:04:56.000Z,6.462890624999995
2023-05-18T02:05:56.000Z,7.107421874999997
2023-05-18T02:06:57.000Z,8.396484375000002
2023-05-18T02:07:57.000Z,7.751953125
2023-05-18T02:08:57.000Z,8.718749999999996
2023-05-18T02:09:57.000Z,7.4296875000000036
2023-05-18T02:10:57.000Z,7.4296875000000036
2023-05-18T02:11:58.000Z,7.751953125
2023-05-18T02:12:58.000Z,7.751953125
2023-05-18T02:13:58.000Z,7.4296875000000036
2023-05-18T02:14:58.000Z,7.4296875000000036
2023-05-18T02:15:59.000Z,7.107421874999997
2023-05-18T02:16:59.000Z,6.462890624999995
2023-05-18T02:17:59.000Z,7.4296875000000036
2023-05-18T02:18:59.000Z,7.4296875000000036
2023-05-18T02:20:00.000Z,6.462890624999995
2023-05-18T02:21:00.000Z,8.074218749999995
2023-05-18T02:22:00.000Z,6.785156250000002
2023-05-18T02:23:00.000Z,7.107421874999997
2023-05-18T02:24:00.000Z,7.4296875000000036
2023-05-18T02:25:01.000Z,8.396484375000002
2023-05-18T02:26:01.000Z,6.785156250000002
2023-05-18T02:27:01.000Z,6.785156250000002
2023-05-18T02:28:02.000Z,7.4296875000000036
2023-05-18T02:29:02.000Z,6.785156250000002
2023-05-18T02:30:02.000Z,7.107421874999997
2023-05-18T02:31:02.000Z,7.107421874999997
2023-05-18T02:32:03.000Z,6.462890624999995
2023-05-18T02:33:03.000Z,6.785156250000002
2023-05-18T02:34:03.000Z,6.140625
2023-05-18T02:35:03.000Z,7.107421874999997
2023-05-18T02:36:03.000Z,8.396484375000002
2023-05-18T02:37:04.000Z,7.4296875000000036
2023-05-18T02:38:04.000Z,7.107421874999997
2023-05-18T02:39:04.000Z,7.107421874999997
2023-05-18T02:40:04.000Z,7.4296875000000036
2023-05-18T02:41:04.000Z,6.140625
2023-05-18T02:42:05.000Z,8.396484375000002
2023-05-18T02:43:05.000Z,7.107421874999997
2023-05-18T02:44:05.000Z,7.4296875000000036
2023-05-18T02:45:05.000Z,7.107421874999997
2023-05-18T02:46:05.000Z,6.462890624999995
2023-05-18T02:47:05.000Z,7.751953125
2023-05-18T02:48:06.000Z,7.107421874999997
2023-05-18T02:49:06.000Z,6.462890624999995
2023-05-18T02:50:06.000Z,7.107421874999997
2023-05-18T02:51:06.000Z,6.462890624999995
2023-05-18T02:52:06.000Z,7.107421874999997
2023-05-18T02:53:07.000Z,7.4296875000000036
2023-05-18T02:54:07.000Z,6.785156250000002
2023-05-18T02:55:07.000Z,6.140625
2023-05-18T02:56:07.000Z,6.785156250000002
2023-05-18T02:57:07.000Z,8.074218749999995
2023-05-18T02:58:08.000Z,7.107421874999997
2023-05-18T02:59:08.000Z,8.396484375000002
2023-05-18T03:00:08.000Z,6.785156250000002
2023-05-18T03:01:08.000Z,6.785156250000002
2023-05-18T03:02:09.000Z,8.718749999999996
2023-05-18T03:03:09.000Z,8.074218749999995
2023-05-18T03:04:09.000Z,8.074218749999995
2023-05-18T03:05:10.000Z,7.107421874999997
2023-05-18T03:06:10.000Z,6.462890624999995
2023-05-18T03:07:11.000Z,7.107421874999997
2023-05-18T03:08:11.000Z,5.8183593750000036
2023-05-18T03:09:11.000Z,6.785156250000002
2023-05-18T03:10:11.000Z,7.107421874999997
2023-05-18T03:11:12.000Z,7.751953125
2023-05-18T03:12:12.000Z,7.107421874999997
2023-05-18T03:13:12.000Z,6.462890624999995
2023-05-18T03:14:12.000Z,6.785156250000002
2023-05-18T03:15:12.000Z,8.074218749999995
2023-05-18T03:16:13.000Z,6.462890624999995
2023-05-18T03:17:13.000Z,6.785156250000002
2023-05-18T03:18:13.000Z,6.462890624999995
2023-05-18T03:19:13.000Z,6.785156250000002
2023-05-18T03:20:14.000Z,8.074218749999995
2023-05-18T03:21:14.000Z,5.173828125000002
2023-05-18T03:22:14.000Z,8.074218749999995
2023-05-18T03:23:14.000Z,6.785156250000002
2023-05-18T03:24:14.000Z,7.107421874999997
2023-05-18T03:25:14.000Z,6.785156250000002
2023-05-18T03:26:15.000Z,6.785156250000002
2023-05-18T03:27:15.000Z,6.785156250000002
2023-05-18T03:28:15.000Z,2.9179687499999996
2023-05-18T03:29:15.000Z,6.140625
2023-05-18T03:30:16.000Z,7.107421874999997
2023-05-18T03:31:16.000Z,6.785156250000002
2023-05-18T03:32:16.000Z,7.751953125
2023-05-18T03:33:16.000Z,7.107421874999997
2023-05-18T03:34:16.000Z,6.462890624999995
2023-05-18T03:35:17.000Z,6.462890624999995
2023-05-18T03:36:17.000Z,8.074218749999995
2023-05-18T03:37:17.000Z,7.107421874999997
2023-05-18T03:38:17.000Z,7.107421874999997
2023-05-18T03:39:17.000Z,5.8183593750000036
2023-05-18T03:40:18.000Z,7.107421874999997
2023-05-18T03:41:18.000Z,7.107421874999997
2023-05-18T03:42:18.000Z,7.107421874999997
2023-05-18T03:43:18.000Z,8.074218749999995
2023-05-18T03:44:18.000Z,7.4296875000000036
2023-05-18T03:45:19.000Z,6.785156250000002
2023-05-18T03:46:19.000Z,5.8183593750000036
2023-05-18T03:47:19.000Z,6.140625
2023-05-18T03:48:19.000Z,6.785156250000002
2023-05-18T03:49:19.000Z,8.074218749999995
2023-05-18T03:50:20.000Z,6.140625
2023-05-18T03:51:20.000Z,6.462890624999995
2023-05-18T03:52:20.000Z,7.107421874999997
2023-05-18T03:53:20.000Z,6.785156250000002
2023-05-18T03:54:20.000Z,6.785156250000002
2023-05-18T03:55:21.000Z,5.173828125000002
2023-05-18T03:56:21.000Z,7.107421874999997
2023-05-18T03:57:21.000Z,6.785156250000002
2023-05-18T03:58:21.000Z,6.462890624999995
2023-05-18T03:59:21.000Z,6.785156250000002
2023-05-18T04:00:22.000Z,8.074218749999995
2023-05-18T04:01:22.000Z,5.496093749999997
2023-05-18T04:02:22.000Z,5.8183593750000036
2023-05-18T04:03:23.000Z,6.462890624999995
2023-05-18T04:04:23.000Z,6.140625
2023-05-18T04:05:23.000Z,6.785156250000002
2023-05-18T04:06:23.000Z,7.4296875000000036
2023-05-18T04:07:24.000Z,6.785156250000002
2023-05-18T04:08:24.000Z,7.751953125
2023-05-18T04:09:24.000Z,7.4296875000000036
2023-05-18T04:10:24.000Z,5.8183593750000036
2023-05-18T04:11:24.000Z,6.785156250000002
2023-05-18T04:12:25.000Z,7.107421874999997
2023-05-18T04:13:25.000Z,7.107421874999997
2023-05-18T04:14:25.000Z,6.785156250000002
2023-05-18T04:15:25.000Z,8.074218749999995
2023-05-18T04:16:25.000Z,7.107421874999997
2023-05-18T04:17:26.000Z,6.785156250000002
2023-05-18T04:18:26.000Z,7.107421874999997
2023-05-18T04:19:26.000Z,7.107421874999997
2023-05-18T04:20:26.000Z,6.785156250000002
2023-05-18T04:21:26.000Z,5.8183593750000036
2023-05-18T04:22:27.000Z,7.4296875000000036
2023-05-18T04:23:27.000Z,6.140625
2023-05-18T04:24:27.000Z,5.8183593750000036
2023-05-18T04:25:27.000Z,7.107421874999997
2023-05-18T04:26:27.000Z,7.107421874999997
2023-05-18T04:27:28.000Z,7.107421874999997
2023-05-18T04:28:28.000Z,6.140625
2023-05-18T04:29:28.000Z,7.107421874999997
2023-05-18T04:30:28.000Z,6.785156250000002
2023-05-18T04:31:29.000Z,7.107421874999997
2023-05-18T04:32:29.000Z,6.140625
2023-05-18T04:33:29.000Z,6.785156250000002
2023-05-18T04:34:29.000Z,6.785156250000002
2023-05-18T04:35:29.000Z,7.4296875000000036
2023-05-18T04:36:30.000Z,6.140625
2023-05-18T04:37:30.000Z,6.785156250000002
2023-05-18T04:38:30.000Z,6.462890624999995
2023-05-18T04:39:30.000Z,6.140625
2023-05-18T04:40:30.000Z,7.4296875000000036
2023-05-18T04:41:31.000Z,8.396484375000002
2023-05-18T04:42:31.000Z,7.4296875000000036
2023-05-18T04:43:31.000Z,6.140625
2023-05-18T04:44:31.000Z,8.718749999999996
2023-05-18T04:45:31.000Z,7.4296875000000036
2023-05-18T04:46:32.000Z,6.785156250000002
2023-05-18T04:47:32.000Z,5.173828125000002
2023-05-18T04:48:32.000Z,6.462890624999995
2023-05-18T04:49:32.000Z,6.785156250000002
2023-05-18T04:50:32.000Z,8.074218749999995
2023-05-18T04:51:33.000Z,7.4296875000000036
2023-05-18T04:52:33.000Z,7.4296875000000036
2023-05-18T04:53:33.000Z,7.107421874999997
2023-05-18T04:54:33.000Z,7.4296875000000036
2023-05-18T04:55:33.000Z,7.4296875000000036
2023-05-18T04:56:34.000Z,6.140625
2023-05-18T04:57:34.000Z,7.751953125
2023-05-18T04:58:34.000Z,6.140625
2023-05-18T04:59:34.000Z,6.462890624999995
2023-05-18T05:00:35.000Z,7.4296875000000036
2023-05-18T05:01:35.000Z,9.041015625000004
2023-05-18T05:02:35.000Z,7.4296875000000036
2023-05-18T05:03:35.000Z,8.074218749999995
2023-05-18T05:04:36.000Z,7.751953125
2023-05-18T05:05:36.000Z,7.4296875000000036
2023-05-18T05:06:36.000Z,7.4296875000000036
2023-05-18T05:07:37.000Z,7.751953125
2023-05-18T05:08:37.000Z,7.751953125
2023-05-18T05:09:37.000Z,7.751953125
2023-05-18T05:10:37.000Z,7.4296875000000036
2023-05-18T05:11:37.000Z,7.107421874999997
2023-05-18T05:12:38.000Z,6.785156250000002
2023-05-18T05:13:38.000Z,8.396484375000002
2023-05-18T05:14:38.000Z,7.4296875000000036
2023-05-18T05:15:38.000Z,7.751953125
2023-05-18T05:16:38.000Z,7.107421874999997
2023-05-18T05:17:39.000Z,7.4296875000000036
2023-05-18T05:18:39.000Z,6.785156250000002
2023-05-18T05:19:39.000Z,7.107421874999997
2023-05-18T05:20:39.000Z,7.751953125
2023-05-18T05:21:40.000Z,7.751953125
2023-05-18T05:22:40.000Z,7.751953125
2023-05-18T05:23:40.000Z,8.074218749999995
2023-05-18T05:24:40.000Z,7.4296875000000036
2023-05-18T05:25:40.000Z,7.751953125
2023-05-18T05:26:41.000Z,9.36328125
2023-05-18T05:27:41.000Z,6.462890624999995
2023-05-18T05:28:41.000Z,7.751953125
2023-05-18T05:29:41.000Z,7.107421874999997
2023-05-18T05:30:41.000Z,7.751953125
2023-05-18T05:31:42.000Z,8.074218749999995
2023-05-18T05:32:42.000Z,8.718749999999996
2023-05-18T05:33:42.000Z,8.074218749999995
2023-05-18T05:34:42.000Z,6.462890624999995
2023-05-18T05:35:43.000Z,8.074218749999995
2023-05-18T05:36:43.000Z,8.074218749999995
2023-05-18T05:37:43.000Z,7.107421874999997
2023-05-18T05:38:43.000Z,8.074218749999995
2023-05-18T05:39:43.000Z,8.396484375000002
2023-05-18T05:40:44.000Z,8.396484375000002
2023-05-18T05:41:44.000Z,8.074218749999995
2023-05-18T05:42:44.000Z,8.396484375000002
2023-05-18T05:43:44.000Z,8.396484375000002
2023-05-18T05:44:44.000Z,8.074218749999995
2023-05-18T05:45:45.000Z,8.074218749999995
2023-05-18T05:46:45.000Z,7.4296875000000036
2023-05-18T05:47:45.000Z,8.074218749999995
2023-05-18T05:48:45.000Z,8.718749999999996
2023-05-18T05:49:45.000Z,8.718749999999996
2023-05-18T05:50:45.000Z,8.396484375000002
2023-05-18T05:51:46.000Z,8.396484375000002
2023-05-18T05:52:46.000Z,8.396484375000002
2023-05-18T05:53:46.000Z,8.396484375000002
2023-05-18T05:54:46.000Z,8.396484375000002
2023-05-18T05:55:47.000Z,8.718749999999996
2023-05-18T05:56:47.000Z,8.718749999999996
2023-05-18T05:57:47.000Z,8.718749999999996
2023-05-18T05:58:47.000Z,8.718749999999996
2023-05-18T05:59:47.000Z,9.685546874999995
2023-05-18T06:00:48.000Z,7.751953125
2023-05-18T06:01:48.000Z,8.396484375000002
2023-05-18T06:02:48.000Z,8.396484375000002
2023-05-18T06:03:48.000Z,8.718749999999996
2023-05-18T06:04:49.000Z,8.718749999999996
2023-05-18T06:05:49.000Z,9.041015625000004
2023-05-18T06:06:49.000Z,8.718749999999996
2023-05-18T06:07:49.000Z,8.718749999999996
2023-05-18T06:08:49.000Z,8.718749999999996
2023-05-18T06:09:50.000Z,10.330078124999996
2023-05-18T06:10:50.000Z,7.4296875000000036
2023-05-18T06:11:50.000Z,9.041015625000004
2023-05-18T06:12:55.000Z,8.718749999999996
2023-05-18T06:13:55.000Z,8.396484375000002
2023-05-18T06:14:56.000Z,8.718749999999996
2023-05-18T06:15:56.000Z,8.074218749999995
2023-05-18T06:16:56.000Z,10.007812500000002
2023-05-18T06:17:56.000Z,9.685546874999995
2023-05-18T06:18:56.000Z,9.685546874999995
2023-05-18T06:19:57.000Z,8.074218749999995
2023-05-18T06:20:57.000Z,9.041015625000004
2023-05-18T06:21:57.000Z,9.041015625000004
2023-05-18T06:22:58.000Z,8.718749999999996
2023-05-18T06:23:58.000Z,8.718749999999996
2023-05-18T06:24:58.000Z,9.685546874999995
2023-05-18T06:25:59.000Z,9.36328125
2023-05-18T06:26:59.000Z,9.041015625000004
2023-05-18T06:27:59.000Z,9.041015625000004
2023-05-18T06:28:59.000Z,9.041015625000004
2023-05-18T06:30:00.000Z,9.041015625000004
2023-05-18T06:31:00.000Z,8.396484375000002
2023-05-18T06:32:00.000Z,9.041015625000004
2023-05-18T06:33:00.000Z,9.041015625000004
2023-05-18T06:34:00.000Z,9.041015625000004
2023-05-18T06:35:01.000Z,8.074218749999995
2023-05-18T06:36:01.000Z,9.041015625000004
2023-05-18T06:37:01.000Z,9.041015625000004
2023-05-18T06:38:01.000Z,9.36328125
2023-05-18T06:39:02.000Z,8.074218749999995
2023-05-18T06:40:02.000Z,10.330078124999996
2023-05-18T06:41:02.000Z,9.041015625000004
2023-05-18T06:42:02.000Z,9.36328125
2023-05-18T06:43:02.000Z,9.36328125
2023-05-18T06:44:03.000Z,9.36328125
2023-05-18T06:45:08.000Z,9.041015625000004
2023-05-18T06:46:08.000Z,10.330078124999996
2023-05-18T06:47:08.000Z,9.36328125
2023-05-18T06:48:08.000Z,7.751953125
2023-05-18T06:49:09.000Z,8.718749999999996
2023-05-18T06:50:09.000Z,9.041015625000004
2023-05-18T06:51:09.000Z,9.685546874999995
2023-05-18T06:52:10.000Z,9.36328125
2023-05-18T06:53:10.000Z,9.36328125
2023-05-18T06:54:10.000Z,8.396484375000002
2023-05-18T06:55:10.000Z,9.36328125
2023-05-18T06:56:10.000Z,9.36328125
2023-05-18T06:57:11.000Z,9.685546874999995
2023-05-18T06:58:11.000Z,9.685546874999995
2023-05-18T06:59:11.000Z,9.36328125
2023-05-18T07:00:11.000Z,10.330078124999996
2023-05-18T07:01:12.000Z,9.041015625000004
2023-05-18T07:02:12.000Z,9.36328125
2023-05-18T07:03:12.000Z,10.330078124999996
2023-05-18T07:04:12.000Z,9.36328125
2023-05-18T07:05:13.000Z,9.685546874999995
2023-05-18T07:06:13.000Z,10.652343750000004
2023-05-18T07:07:13.000Z,8.396484375000002
2023-05-18T07:08:13.000Z,7.751953125
2023-05-18T07:09:13.000Z,9.685546874999995
2023-05-18T07:10:14.000Z,10.007812500000002
2023-05-18T07:11:14.000Z,9.041015625000004
2023-05-18T07:12:14.000Z,11.296874999999995
2023-05-18T07:13:14.000Z,9.685546874999995
2023-05-18T07:14:14.000Z,9.685546874999995
2023-05-18T07:15:15.000Z,10.652343750000004
2023-05-18T07:16:15.000Z,9.685546874999995
2023-05-18T07:17:15.000Z,9.041015625000004
2023-05-18T07:18:15.000Z,10.330078124999996
2023-05-18T07:19:16.000Z,9.041015625000004
2023-05-18T07:20:16.000Z,10.330078124999996
2023-05-18T07:21:16.000Z,10.007812500000002
2023-05-18T07:22:16.000Z,10.330078124999996
2023-05-18T07:23:16.000Z,8.396484375000002
2023-05-18T07:24:16.000Z,9.685546874999995
2023-05-18T07:25:17.000Z,10.652343750000004
2023-05-18T07:26:17.000Z,9.685546874999995
2023-05-18T07:27:17.000Z,9.36328125
2023-05-18T07:28:17.000Z,9.685546874999995
2023-05-18T07:29:18.000Z,9.685546874999995
2023-05-18T07:30:18.000Z,10.330078124999996
2023-05-18T07:31:18.000Z,10.330078124999996
2023-05-18T07:32:18.000Z,10.007812500000002
2023-05-18T07:33:18.000Z,10.974609375
2023-05-18T07:34:19.000Z,10.007812500000002
2023-05-18T07:35:19.000Z,11.296874999999995
2023-05-18T07:36:19.000Z,11.296874999999995
2023-05-18T07:37:19.000Z,11.619140625000002
2023-05-18T07:38:19.000Z,10.007812500000002
2023-05-18T07:39:19.000Z,10.330078124999996
2023-05-18T07:40:20.000Z,10.330078124999996
2023-05-18T07:41:20.000Z,9.36328125
2023-05-18T07:42:20.000Z,10.974609375
2023-05-18T07:43:21.000Z,10.007812500000002
2023-05-18T07:44:21.000Z,11.619140625000002
2023-05-18T07:45:21.000Z,10.974609375
2023-05-18T07:46:21.000Z,10.007812500000002
2023-05-18T07:47:21.000Z,9.685546874999995
2023-05-18T07:48:22.000Z,11.296874999999995
2023-05-18T07:49:22.000Z,9.36328125
2023-05-18T07:50:22.000Z,10.974609375
2023-05-18T07:51:23.000Z,10.330078124999996
2023-05-18T07:52:23.000Z,8.718749999999996
2023-05-18T07:53:23.000Z,11.296874999999995
2023-05-18T07:54:23.000Z,11.296874999999995
2023-05-18T07:55:23.000Z,11.619140625000002
2023-05-18T07:56:24.000Z,10.330078124999996
2023-05-18T07:57:24.000Z,10.330078124999996
2023-05-18T07:58:24.000Z,10.652343750000004
2023-05-18T07:59:24.000Z,9.685546874999995
2023-05-18T08:00:25.000Z,10.652343750000004
2023-05-18T08:01:25.000Z,10.974609375
2023-05-18T08:02:25.000Z,10.652343750000004
2023-05-18T08:03:25.000Z,10.330078124999996
2023-05-18T08:04:25.000Z,11.619140625000002
2023-05-18T08:05:26.000Z,9.685546874999995
2023-05-18T08:06:26.000Z,10.652343750000004
2023-05-18T08:07:26.000Z,10.652343750000004
2023-05-18T08:08:26.000Z,9.685546874999995
2023-05-18T08:09:27.000Z,12.5859375
2023-05-18T08:10:27.000Z,10.974609375
2023-05-18T08:11:27.000Z,10.007812500000002
2023-05-18T08:12:27.000Z,10.007812500000002
2023-05-18T08:13:27.000Z,10.974609375
2023-05-18T08:14:28.000Z,11.296874999999995
2023-05-18T08:15:28.000Z,10.974609375
2023-05-18T08:16:28.000Z,11.941406249999996
2023-05-18T08:17:28.000Z,11.296874999999995
2023-05-18T08:18:29.000Z,10.974609375
2023-05-18T08:19:29.000Z,11.941406249999996
2023-05-18T08:20:29.000Z,11.619140625000002
2023-05-18T08:21:29.000Z,11.619140625000002
2023-05-18T08:22:29.000Z,11.941406249999996
2023-05-18T08:23:30.000Z,11.296874999999995
2023-05-18T08:24:30.000Z,11.296874999999995
2023-05-18T08:25:30.000Z,11.619140625000002
2023-05-18T08:26:30.000Z,12.5859375
2023-05-18T08:27:30.000Z,12.263671875000004
2023-05-18T08:28:31.000Z,12.263671875000004
2023-05-18T08:29:31.000Z,10.652343750000004
2023-05-18T08:30:32.000Z,11.619140625000002
2023-05-18T08:31:32.000Z,10.974609375
2023-05-18T08:32:32.000Z,12.908203124999995
2023-05-18T08:33:32.000Z,12.263671875000004
2023-05-18T08:34:32.000Z,12.263671875000004
2023-05-18T08:35:33.000Z,12.263671875000004
2023-05-18T08:36:33.000Z,12.263671875000004
2023-05-18T08:37:33.000Z,11.941406249999996
2023-05-18T08:38:33.000Z,12.908203124999995
2023-05-18T08:39:39.000Z,12.263671875000004
2023-05-18T08:40:39.000Z,13.230468750000002
2023-05-18T08:41:39.000Z,11.296874999999995
2023-05-18T08:42:39.000Z,12.263671875000004
2023-05-18T08:43:40.000Z,11.619140625000002
2023-05-18T08:44:40.000Z,11.941406249999996
2023-05-18T08:45:40.000Z,11.941406249999996
2023-05-18T08:46:40.000Z,12.263671875000004
2023-05-18T08:47:41.000Z,12.5859375
2023-05-18T08:48:41.000Z,12.5859375
2023-05-18T08:49:41.000Z,12.263671875000004
2023-05-18T08:50:41.000Z,12.263671875000004
2023-05-18T08:51:41.000Z,14.197265625
2023-05-18T08:52:42.000Z,14.519531249999995
2023-05-18T08:53:42.000Z,12.908203124999995
2023-05-18T08:54:42.000Z,13.874999999999993
2023-05-18T08:55:42.000Z,13.230468750000002
2023-05-18T08:56:43.000Z,13.230468750000002
2023-05-18T08:57:43.000Z,12.5859375
2023-05-18T08:58:43.000Z,12.908203124999995
2023-05-18T08:59:43.000Z,11.941406249999996
2023-05-18T09:00:43.000Z,12.263671875000004
2023-05-18T09:01:44.000Z,12.908203124999995
2023-05-18T09:02:44.000Z,11.619140625000002
2023-05-18T09:03:44.000Z,13.552734374999996
2023-05-18T09:04:44.000Z,11.941406249999996
2023-05-18T09:05:44.000Z,13.230468750000002
2023-05-18T09:06:45.000Z,12.5859375
2023-05-18T09:07:45.000Z,12.5859375
2023-05-18T09:08:45.000Z,11.619140625000002
2023-05-18T09:09:45.000Z,12.263671875000004
2023-05-18T09:10:46.000Z,12.263671875000004
2023-05-18T09:11:46.000Z,13.230468750000002
2023-05-18T09:12:46.000Z,11.941406249999996
2023-05-18T09:13:51.000Z,12.263671875000004
2023-05-18T09:14:52.000Z,11.296874999999995
2023-05-18T09:15:52.000Z,12.5859375
2023-05-18T09:16:52.000Z,11.941406249999996
2023-05-18T09:17:52.000Z,10.974609375
2023-05-18T09:18:52.000Z,12.263671875000004
2023-05-18T09:19:53.000Z,11.941406249999996
2023-05-18T09:20:53.000Z,13.230468750000002
2023-05-18T09:21:53.000Z,11.296874999999995
2023-05-18T09:22:53.000Z,12.5859375
2023-05-18T09:23:54.000Z,12.263671875000004
2023-05-18T09:24:54.000Z,11.941406249999996
2023-05-18T09:25:54.000Z,13.874999999999993
2023-05-18T09:26:54.000Z,12.5859375
2023-05-18T09:27:54.000Z,12.908203124999995
2023-05-18T09:28:55.000Z,12.908203124999995
2023-05-18T09:29:55.000Z,12.908203124999995
2023-05-18T09:30:55.000Z,12.908203124999995